Time;durP1;ratioP1;P1;durP2;ratioP2;P2;SDS_P1;SDS_P2;PMS_P1;PMS_P2;Temp;Humidity;BMP_temperature;BMP_pressure;BME280_temperature;BME280_humidity;BME280_pressure;Samples;Min_cycle;Max_cycle;Signal;HPM_P1;HPM_P2
2022/07/30 00:00:18;;;;;;;9.47;4.87;;;17.80;99.90;;;;;;5157403;27;20046;-72
2022/07/30 00:02:44;;;;;;;8.07;4.17;;;17.80;99.90;;;;;;5157314;27;20051;-72
2022/07/30 00:05:09;;;;;;;7.87;4.53;;;17.70;99.90;;;;;;5157136;27;20039;-72
2022/07/30 00:07:35;;;;;;;8.90;4.77;;;17.80;99.90;;;;;;5138546;27;20440;-72
2022/07/30 00:10:03;;;;;;;9.10;4.20;;;17.80;99.90;;;;;;5157235;27;20049;-72
2022/07/30 00:12:28;;;;;;;7.40;4.20;;;17.80;99.90;;;;;;5157059;27;20035;-72
2022/07/30 00:14:54;;;;;;;6.57;3.63;;;17.70;99.90;;;;;;5156632;27;20066;-72
2022/07/30 00:17:20;;;;;;;8.17;3.97;;;17.70;99.90;;;;;;5156978;27;20046;-72
2022/07/30 00:19:46;;;;;;;10.13;4.40;;;17.70;99.90;;;;;;5138255;27;20502;-72
2022/07/30 00:22:12;;;;;;;7.97;4.10;;;17.70;99.90;;;;;;5156478;27;20517;-72
2022/07/30 00:24:37;;;;;;;8.83;4.23;;;17.70;99.90;;;;;;5156270;27;20050;-72
2022/07/30 00:27:03;;;;;;;7.30;4.13;;;17.60;99.90;;;;;;5156672;27;20367;-72
2022/07/30 00:29:30;;;;;;;8.97;4.27;;;17.60;99.90;;;;;;5138175;27;20042;-72
2022/07/30 00:31:56;;;;;;;7.70;4.77;;;17.60;99.90;;;;;;5137898;27;20046;-72
2022/07/30 00:34:21;;;;;;;9.80;4.40;;;17.50;99.90;;;;;;5156531;27;20107;-72
2022/07/30 00:36:47;;;;;;;6.77;4.60;;;17.40;99.90;;;;;;5156315;27;20046;-72
2022/07/30 00:39:13;;;;;;;8.27;4.60;;;17.40;99.90;;;;;;5156527;27;20043;-72
2022/07/30 00:41:59;;;;;;;8.87;4.40;;;17.40;99.90;;;;;;5156291;27;20488;-72
2022/07/30 00:44:25;;;;;;;8.40;4.60;;;17.40;99.90;;;;;;5156419;27;20047;-72
2022/07/30 00:46:51;;;;;;;9.27;4.10;;;17.30;99.90;;;;;;5156037;27;20043;-72
2022/07/30 00:49:17;;;;;;;7.80;4.60;;;17.30;99.90;;;;;;5156319;27;20091;-72
2022/07/30 00:51:43;;;;;;;7.30;5.17;;;17.30;99.90;;;;;;5155941;27;20088;-72
2022/07/30 00:54:09;;;;;;;8.63;4.53;;;17.20;99.90;;;;;;5137709;27;20039;-72
2022/07/30 00:56:35;;;;;;;11.63;4.90;;;17.20;99.90;;;;;;5156105;27;20103;-72
2022/07/30 00:59:00;;;;;;;7.17;4.70;;;17.10;99.90;;;;;;5155763;27;20047;-70
2022/07/30 01:01:26;;;;;;;7.27;4.10;;;17.10;99.90;;;;;;5156049;27;20039;-72
2022/07/30 01:03:52;;;;;;;8.73;4.50;;;17.00;99.90;;;;;;5155613;27;20495;-72
2022/07/30 01:06:17;;;;;;;8.27;4.20;;;17.00;99.90;;;;;;5155917;27;20043;-72
2022/07/30 01:08:43;;;;;;;8.60;4.90;;;17.00;99.90;;;;;;5155599;27;20042;-72
2022/07/30 01:11:10;;;;;;;9.13;5.27;;;17.00;99.90;;;;;;5137543;27;20138;-72
2022/07/30 01:13:35;;;;;;;7.83;4.90;;;17.00;99.90;;;;;;5155557;27;20566;-71
2022/07/30 01:16:02;;;;;;;8.63;4.97;;;17.00;99.90;;;;;;5155469;27;20137;-72
2022/07/30 01:19:47;;;;;;;7.30;5.00;;;17.00;99.90;;;;;;5155731;27;20056;-71
2022/07/30 01:21:20;;;;;;;11.00;5.33;;;17.00;99.90;;;;;;5155187;27;20066;-71
2022/07/30 01:23:52;;;;;;;7.17;5.00;;;17.00;99.90;;;;;;5155405;27;20043;-72
2022/07/30 01:26:21;;;;;;;11.50;5.43;;;17.00;99.90;;;;;;5155631;27;20095;-71
2022/07/30 01:28:52;;;;;;;8.77;5.20;;;17.00;99.90;;;;;;5155182;27;20047;-72
2022/07/30 01:31:19;;;;;;;7.00;5.10;;;16.90;99.90;;;;;;5155976;27;20066;-71
2022/07/30 01:33:48;;;;;;;8.97;5.23;;;16.90;99.90;;;;;;5154813;27;20103;-72
2022/07/30 01:36:16;;;;;;;8.37;5.10;;;16.90;99.90;;;;;;5155038;27;20394;-72
2022/07/30 01:38:45;;;;;;;8.57;5.50;;;16.90;99.90;;;;;;5155124;27;20038;-73
2022/07/30 01:41:12;;;;;;;9.27;5.37;;;16.80;99.90;;;;;;5155210;27;20046;-72
2022/07/30 01:43:38;;;;;;;8.43;5.63;;;16.80;99.90;;;;;;5155199;27;20041;-72
2022/07/30 01:46:05;;;;;;;8.50;5.83;;;16.70;99.90;;;;;;5154957;27;20089;-72
2022/07/30 01:48:34;;;;;;;8.60;5.87;;;16.70;99.90;;;;;;5155196;27;20050;-72
2022/07/30 01:51:03;;;;;;;10.03;5.70;;;16.70;99.90;;;;;;5136388;27;20042;-72
2022/07/30 01:53:32;;;;;;;7.63;5.13;;;16.70;99.90;;;;;;5155073;27;20050;-72
2022/07/30 01:56:00;;;;;;;8.30;5.40;;;16.60;99.90;;;;;;5154772;27;20038;-72
2022/07/30 01:58:30;;;;;;;6.87;5.13;;;16.50;99.90;;;;;;5136697;27;20050;-72
2022/07/30 02:00:57;;;;;;;9.37;4.93;;;16.60;99.90;;;;;;5154673;27;20046;-72
2022/07/30 02:03:24;;;;;;;8.87;5.30;;;16.50;99.90;;;;;;5154942;27;20083;-72
2022/07/30 02:05:58;;;;;;;8.63;5.63;;;16.50;99.90;;;;;;5154679;27;20050;-72
2022/07/30 02:08:44;;;;;;;9.15;5.72;;;16.50;99.90;;;;;;5155189;27;20507;-72
2022/07/30 02:11:14;;;;;;;7.40;5.20;;;16.50;99.90;;;;;;5154647;27;20042;-72
2022/07/30 02:13:52;;;;;;;5.67;4.60;;;16.50;99.90;;;;;;5154906;27;20059;-72
2022/07/30 02:16:29;;;;;;;6.53;4.77;;;16.40;99.90;;;;;;5154771;27;20054;-72
2022/07/30 02:19:01;;;;;;;6.73;5.37;;;16.50;99.90;;;;;;5154487;27;20057;-72
2022/07/30 02:21:31;;;;;;;7.23;5.53;;;16.40;99.90;;;;;;5154892;27;20078;-72
2022/07/30 02:23:57;;;;;;;9.50;5.73;;;16.40;99.90;;;;;;5154380;27;20074;-72
2022/07/30 02:26:25;;;;;;;10.83;5.93;;;16.40;99.90;;;;;;5154788;27;20046;-72
2022/07/30 02:28:53;;;;;;;7.80;5.80;;;16.40;99.90;;;;;;5154367;27;20063;-72
2022/07/30 02:31:23;;;;;;;6.90;5.60;;;16.40;99.90;;;;;;5154780;27;20125;-72
2022/07/30 02:33:53;;;;;;;8.13;5.57;;;16.40;99.90;;;;;;5154241;27;20050;-73
2022/07/30 02:36:20;;;;;;;7.70;5.80;;;16.40;99.90;;;;;;5136223;27;20133;-72
2022/07/30 02:38:49;;;;;;;7.60;5.20;;;16.40;99.90;;;;;;5154477;27;20042;-72
2022/07/30 02:41:17;;;;;;;8.93;5.53;;;16.40;99.90;;;;;;5154497;27;20137;-72
2022/07/30 02:43:44;;;;;;;8.90;5.27;;;16.30;99.90;;;;;;5154473;27;20042;-72
2022/07/30 02:46:13;;;;;;;7.53;5.27;;;16.30;99.90;;;;;;5155571;27;20142;-72
2022/07/30 02:48:40;;;;;;;8.70;5.60;;;16.30;99.90;;;;;;5158664;27;20050;-72
2022/07/30 02:51:08;;;;;;;11.13;4.80;;;16.30;99.90;;;;;;5158396;27;20057;-72
2022/07/30 02:53:36;;;;;;;7.40;4.63;;;16.30;99.90;;;;;;5158193;27;20159;-72
2022/07/30 02:56:04;;;;;;;7.20;5.03;;;16.30;99.90;;;;;;5158217;27;20075;-72
2022/07/30 02:58:30;;;;;;;7.13;4.47;;;16.20;99.90;;;;;;5158574;27;20042;-72
2022/07/30 03:00:57;;;;;;;6.63;4.83;;;16.20;99.90;;;;;;5139859;27;20482;-72
2022/07/30 03:03:28;;;;;;;7.23;5.17;;;16.10;99.90;;;;;;5158373;27;20054;-72
2022/07/30 03:05:54;;;;;;;5.97;4.43;;;16.20;99.90;;;;;;5158131;27;20210;-73
2022/07/30 03:08:20;;;;;;;5.63;4.43;;;16.20;99.90;;;;;;5139998;27;20501;-72
2022/07/30 03:10:47;;;;;;;6.53;4.80;;;16.10;99.90;;;;;;5158435;27;20043;-72
2022/07/30 03:13:14;;;;;;;6.50;4.37;;;16.10;99.90;;;;;;5139448;27;20936;-72
2022/07/30 03:15:50;;;;;;;5.40;4.43;;;16.00;99.90;;;;;;5139774;27;20505;-72
2022/07/30 03:18:18;;;;;;;6.90;4.97;;;16.00;99.90;;;;;;5157916;27;20054;-72
2022/07/30 03:20:48;;;;;;;5.37;4.43;;;16.00;99.90;;;;;;5158115;27;20053;-72
2022/07/30 03:23:18;;;;;;;6.70;4.83;;;16.00;99.90;;;;;;5157428;27;20564;-72
2022/07/30 03:25:55;;;;;;;6.73;4.97;;;16.00;99.90;;;;;;5157967;27;20038;-72
2022/07/30 03:28:25;;;;;;;7.17;5.63;;;16.10;99.90;;;;;;5158024;27;20051;-72
2022/07/30 03:30:52;;;;;;;6.20;5.43;;;16.00;99.90;;;;;;5157962;27;20043;-72
2022/07/30 03:33:18;;;;;;;7.83;5.80;;;16.00;99.90;;;;;;5157454;27;20042;-72
2022/07/30 03:35:46;;;;;;;6.60;5.33;;;16.00;99.90;;;;;;5157940;27;20423;-72
2022/07/30 03:38:15;;;;;;;7.07;5.47;;;15.90;99.90;;;;;;5157605;27;20046;-72
2022/07/30 03:40:42;;;;;;;6.13;5.10;;;16.00;99.90;;;;;;5157627;27;20043;-72
2022/07/30 03:43:09;;;;;;;6.20;4.70;;;15.90;99.90;;;;;;5157435;27;20082;-72
2022/07/30 03:45:40;;;;;;;6.03;4.50;;;15.90;99.90;;;;;;5157854;27;20051;-72
2022/07/30 03:48:08;;;;;;;6.27;4.40;;;15.90;99.90;;;;;;5138964;27;20439;-72
2022/07/30 03:50:35;;;;;;;6.23;3.93;;;15.90;99.90;;;;;;5157470;27;20050;-72
2022/07/30 03:53:03;;;;;;;5.03;3.90;;;15.80;99.90;;;;;;5157147;27;20061;-72
2022/07/30 03:55:30;;;;;;;5.27;4.00;;;15.80;99.90;;;;;;5157496;27;20107;-72
2022/07/30 03:57:56;;;;;;;5.10;4.27;;;15.70;99.90;;;;;;5121052;27;20107;-72
2022/07/30 04:00:22;;;;;;;7.13;4.73;;;15.70;99.90;;;;;;5157019;27;20043;-72
2022/07/30 04:02:48;;;;;;;6.43;3.60;;;15.80;99.90;;;;;;5138961;27;20047;-72
2022/07/30 04:05:15;;;;;;;5.83;4.50;;;15.70;99.90;;;;;;5156969;27;20077;-72
2022/07/30 04:07:41;;;;;;;5.53;4.13;;;15.80;99.90;;;;;;5157175;27;20390;-72
2022/07/30 04:10:08;;;;;;;5.60;4.27;;;15.70;99.90;;;;;;5156914;27;20054;-72
2022/07/30 04:12:34;;;;;;;5.50;4.30;;;15.70;99.90;;;;;;5157132;27;20283;-72
2022/07/30 04:15:00;;;;;;;6.60;4.20;;;15.70;99.90;;;;;;5156435;27;20347;-75
2022/07/30 04:17:46;;;;;;;5.77;4.10;;;15.70;99.90;;;;;;5156961;27;20373;-72
2022/07/30 04:20:23;;;;;;;5.77;4.33;;;15.70;99.90;;;;;;5156746;27;20121;-72
2022/07/30 04:22:49;;;;;;;6.07;4.63;;;15.70;99.90;;;;;;5157090;27;20053;-72
2022/07/30 04:25:16;;;;;;;5.10;4.13;;;15.70;99.90;;;;;;5156502;27;20051;-72
2022/07/30 04:27:42;;;;;;;6.20;4.60;;;15.70;99.90;;;;;;5138470;27;20276;-72
2022/07/30 04:30:09;;;;;;;5.67;4.30;;;15.70;99.90;;;;;;5156438;27;20053;-72
2022/07/30 04:32:36;;;;;;;7.40;5.00;;;15.70;99.90;;;;;;5156629;27;20744;-72
2022/07/30 04:35:03;;;;;;;7.23;4.67;;;15.70;99.90;;;;;;5156544;27;20292;-72
2022/07/30 04:37:28;;;;;;;8.47;5.13;;;15.70;99.90;;;;;;5156550;27;20049;-72
2022/07/30 04:39:56;;;;;;;8.30;5.70;;;15.80;99.90;;;;;;5156532;27;20280;-72
2022/07/30 04:42:23;;;;;;;13.17;6.30;;;15.80;99.90;;;;;;5156198;27;20497;-72
2022/07/30 04:44:49;;;;;;;12.50;5.90;;;15.90;99.90;;;;;;5156388;27;20319;-72
2022/07/30 04:47:19;;;;;;;9.63;6.70;;;15.90;99.90;;;;;;5155746;27;20316;-73
2022/07/30 04:49:46;;;;;;;9.40;7.00;;;15.90;99.90;;;;;;5156494;27;20046;-72
2022/07/30 04:52:12;;;;;;;8.43;6.90;;;15.90;99.90;;;;;;5137720;27;20467;-73
2022/07/30 04:54:43;;;;;;;10.23;6.63;;;16.00;99.90;;;;;;5156137;27;20085;-72
2022/07/30 04:57:11;;;;;;;9.23;6.77;;;16.00;99.90;;;;;;5156036;27;20035;-73
2022/07/30 04:59:37;;;;;;;8.90;6.80;;;16.10;99.90;;;;;;5156291;27;20043;-72
2022/07/30 05:02:06;;;;;;;11.50;6.37;;;16.10;99.90;;;;;;5156222;27;20776;-72
2022/07/30 05:04:33;;;;;;;9.93;6.23;;;16.20;99.90;;;;;;5155861;27;20536;-72
2022/07/30 05:07:01;;;;;;;12.47;7.07;;;16.20;99.90;;;;;;5137510;27;20476;-72
2022/07/30 05:09:28;;;;;;;10.63;6.90;;;16.30;99.90;;;;;;5155661;27;20096;-72
2022/07/30 05:11:54;;;;;;;12.87;6.43;;;16.40;99.90;;;;;;5156038;27;20046;-72
2022/07/30 05:14:21;;;;;;;7.17;6.00;;;16.50;99.90;;;;;;5155473;27;20062;-72
2022/07/30 05:16:48;;;;;;;5.83;5.23;;;16.50;99.90;;;;;;5137307;27;20053;-72
2022/07/30 05:19:13;;;;;;;7.70;5.97;;;16.70;99.90;;;;;;5155394;27;20046;-73
2022/07/30 05:21:39;;;;;;;6.77;5.43;;;16.80;99.90;;;;;;5155644;27;20046;-72
2022/07/30 05:24:05;;;;;;;9.73;5.67;;;16.80;99.90;;;;;;5155666;27;20386;-72
2022/07/30 05:26:31;;;;;;;7.87;5.20;;;16.90;99.90;;;;;;5155250;27;20110;-72
2022/07/30 05:28:57;;;;;;;8.13;5.73;;;17.00;99.90;;;;;;5136835;27;20553;-72
2022/07/30 05:31:23;;;;;;;10.17;5.70;;;17.00;99.90;;;;;;5155153;27;20176;-72
2022/07/30 05:33:49;;;;;;;13.03;7.30;;;17.10;99.90;;;;;;5155307;27;20042;-72
2022/07/30 05:36:15;;;;;;;8.03;5.27;;;17.20;99.90;;;;;;5155063;27;20068;-73
2022/07/30 05:38:40;;;;;;;8.90;5.50;;;17.30;99.90;;;;;;5137229;27;20046;-72
2022/07/30 05:41:06;;;;;;;9.60;5.77;;;17.40;99.90;;;;;;5136909;27;20042;-72
2022/07/30 05:43:32;;;;;;;8.07;5.93;;;17.60;99.90;;;;;;5154728;27;20057;-72
2022/07/30 05:45:57;;;;;;;10.87;6.70;;;17.80;99.90;;;;;;5137066;27;20043;-72
2022/07/30 05:48:23;;;;;;;11.23;6.17;;;18.00;99.90;;;;;;5155270;27;20477;-72
2022/07/30 05:50:49;;;;;;;11.43;6.50;;;18.10;99.90;;;;;;5155100;27;20081;-72
2022/07/30 05:53:14;;;;;;;11.43;5.23;;;18.30;99.90;;;;;;5154805;27;20082;-73
2022/07/30 05:55:40;;;;;;;10.20;4.97;;;18.50;99.90;;;;;;5136852;27;20050;-72
2022/07/30 05:58:06;;;;;;;12.13;5.50;;;19.10;99.90;;;;;;5155159;27;20038;-73
2022/07/30 06:00:34;;;;;;;9.87;5.03;;;19.90;99.90;;;;;;5154655;27;20133;-73
2022/07/30 06:03:00;;;;;;;7.40;4.67;;;20.20;99.90;;;;;;5154643;27;20051;-72
2022/07/30 06:05:27;;;;;;;8.30;4.70;;;20.10;99.90;;;;;;5154658;27;20038;-72
2022/07/30 06:07:53;;;;;;;7.83;5.43;;;20.00;99.90;;;;;;5154897;27;20050;-72
2022/07/30 06:10:19;;;;;;;13.27;4.70;;;19.90;99.90;;;;;;5154612;27;20058;-73
2022/07/30 06:12:44;;;;;;;8.93;5.63;;;19.70;99.90;;;;;;5155002;27;20043;-72
2022/07/30 06:15:10;;;;;;;8.33;4.73;;;20.00;99.90;;;;;;5154909;27;20363;-72
2022/07/30 06:17:41;;;;;;;12.37;4.90;;;21.00;99.90;;;;;;5154561;27;20212;-73
2022/07/30 06:20:08;;;;;;;9.93;4.20;;;21.90;99.90;;;;;;5136221;27;20048;-73
2022/07/30 06:22:33;;;;;;;12.40;5.03;;;22.70;99.90;;;;;;5154185;27;20043;-73
2022/07/30 06:24:59;;;;;;;9.40;4.60;;;23.00;99.90;;;;;;5154759;27;20492;-73
2022/07/30 06:27:26;;;;;;;9.17;4.80;;;23.00;99.90;;;;;;5154505;27;20496;-73
2022/07/30 06:29:52;;;;;;;10.67;4.77;;;23.70;99.90;;;;;;5154789;27;20042;-72
2022/07/30 06:32:18;;;;;;;11.93;4.07;;;24.70;99.90;;;;;;5154567;27;20535;-73
2022/07/30 06:34:44;;;;;;;11.43;4.70;;;25.10;99.90;;;;;;5154537;27;20046;-73
2022/07/30 06:37:10;;;;;;;10.53;4.73;;;25.40;99.90;;;;;;5154345;27;20046;-73
2022/07/30 06:39:35;;;;;;;11.20;4.60;;;25.70;99.90;;;;;;5153889;27;20045;-73
2022/07/30 06:42:01;;;;;;;9.83;4.50;;;26.10;99.90;;;;;;5135502;27;20046;-72
2022/07/30 06:44:27;;;;;;;12.27;4.53;;;;;;;;;;5153689;27;20050;-73
2022/07/30 06:46:54;;;;;;;13.97;4.30;;;;;;;;;;5154064;27;20490;-72
2022/07/30 06:49:20;;;;;;;10.77;4.97;;;;;;;;;;5153566;27;20519;-72
2022/07/30 06:51:46;;;;;;;9.83;4.27;;;;;;;;;;5154079;27;20447;-73
2022/07/30 06:54:12;;;;;;;11.27;4.03;;;;;;;;;;5153872;27;20090;-76
2022/07/30 06:56:38;;;;;;;11.80;3.90;;;;;;;;;;5153412;27;20490;-74
2022/07/30 06:59:04;;;;;;;12.30;4.47;;;;;;;;;;5154344;27;20043;-74
2022/07/30 07:01:30;;;;;;;11.33;4.33;;;;;;;;;;5118822;27;20046;-74
2022/07/30 07:03:56;;;;;;;10.67;4.33;;;;;;;;;;5154153;27;20087;-75
2022/07/30 07:06:23;;;;;;;9.47;5.10;;;;;;;;;;5135508;27;20054;-78
2022/07/30 07:08:49;;;;;;;9.43;4.07;;;;;;;;;;5154188;27;20130;-73
2022/07/30 07:11:15;;;;;;;12.47;5.03;;;;;;;;;;5154264;27;20061;-74
2022/07/30 07:13:41;;;;;;;11.90;4.50;;;;;;;;;;5153620;27;20109;-73
2022/07/30 07:16:07;;;;;;;11.60;4.97;;;;;;;;;;5154028;27;20042;-73
2022/07/30 07:18:33;;;;;;;13.47;5.10;;;;;;;;;;5153743;27;20130;-73
2022/07/30 07:20:59;;;;;;;12.37;4.50;;;22.60;99.90;;;;;;5153845;27;20047;-73
2022/07/30 07:23:24;;;;;;;10.80;4.47;;;23.40;99.90;;;;;;5153488;27;20047;-77
2022/07/30 07:25:50;;;;;;;8.47;3.93;;;24.90;99.90;;;;;;5153690;27;20049;-73
2022/07/30 07:28:16;;;;;;;7.67;3.90;;;26.50;99.90;;;;;;5154196;27;20085;-73
2022/07/30 07:30:43;;;;;;;8.97;3.30;;;;;;;;;;5135400;27;20504;-73
2022/07/30 07:33:09;;;;;;;7.63;3.13;;;;;;;;;;5155411;27;20058;-73
2022/07/30 07:35:35;;;;;;;8.33;3.13;;;;;;;;;;5157475;27;20057;-73
2022/07/30 07:38:01;;;;;;;9.63;3.70;;;;;;;;;;5157656;27;20171;-73
2022/07/30 07:40:27;;;;;;;13.17;3.70;;;26.70;88.80;;;;;;5138840;27;20091;-73
2022/07/30 07:42:53;;;;;;;10.07;3.93;;;27.90;76.70;;;;;;5157934;27;20043;-73
2022/07/30 07:45:19;;;;;;;9.87;3.00;;;;;;;;;;5157499;27;20045;-73
2022/07/30 07:47:46;;;;;;;14.10;3.30;;;;;;;;;;5157037;27;20047;-73
2022/07/30 07:50:14;;;;;;;9.30;2.90;;;;;;;;;;5157546;27;20051;-73
2022/07/30 07:52:40;;;;;;;9.73;4.10;;;;;;;;;;5157053;27;20058;-73
2022/07/30 07:55:06;;;;;;;8.30;2.78;;;;;;;;;;5138531;27;20451;-73
2022/07/30 07:57:42;;;;;;;9.00;3.08;;;;;;;;;;5156800;27;20095;-74
2022/07/30 08:00:10;;;;;;;9.10;3.25;;;;;;;;;;5157008;27;20046;-73
2022/07/30 08:02:36;;;;;;;7.18;3.05;;;;;;;;;;5138573;27;20063;-73
2022/07/30 08:05:04;;;;;;;9.00;3.15;;;;;;;;;;5156970;27;20122;-73
2022/07/30 08:07:30;;;;;;;8.27;3.53;;;;;;;;;;5156761;27;20053;-78
2022/07/30 08:09:56;;;;;;;9.93;3.05;;;;;;;;;;5156912;27;20049;-73
2022/07/30 08:12:22;;;;;;;8.27;3.15;;;;;;;;;;5156905;27;20046;-73
2022/07/30 08:14:48;;;;;;;10.10;2.85;;;;;;;;;;5156614;27;20441;-73
2022/07/30 08:17:15;;;;;;;9.00;3.05;;;;;;;;;;5156599;27;20476;-73
2022/07/30 08:19:41;;;;;;;7.38;2.70;;;;;;;;;;5156275;27;20506;-73
2022/07/30 08:22:07;;;;;;;11.10;3.35;;;;;;;;;;5156848;27;20129;-73
2022/07/30 08:24:33;;;;;;;7.20;3.55;;;;;;;;;;5156669;27;20179;-74
2022/07/30 08:26:59;;;;;;;9.77;3.38;;;;;;;;;;5156751;27;20061;-73
2022/07/30 08:29:25;;;;;;;7.63;3.72;;;;;;;;;;5156779;27;20049;-74
2022/07/30 08:31:51;;;;;;;8.90;2.90;;;;;;;;;;5156111;27;20046;-73
2022/07/30 08:34:19;;;;;;;9.35;3.28;;;;;;;;;;5156539;27;20541;-74
2022/07/30 08:36:45;;;;;;;5.82;2.30;;;;;;;;;;5156173;27;20110;-73
2022/07/30 08:39:11;;;;;;;7.22;2.97;;;;;;;;;;5156673;27;20038;-73
2022/07/30 08:41:37;;;;;;;7.88;3.42;;;;;;;;;;5137965;27;20125;-74
2022/07/30 08:44:03;;;;;;;8.95;2.83;;;;;;;;;;5156454;27;20098;-74
2022/07/30 08:46:31;;;;;;;10.32;2.67;;;;;;;;;;5137939;27;20130;-73
2022/07/30 08:48:58;;;;;;;6.95;2.95;;;;;;;;;;5156044;27;20426;-74
2022/07/30 08:51:24;;;;;;;8.32;2.80;;;;;;;;;;5156171;27;20061;-73
2022/07/30 08:53:50;;;;;;;8.25;3.40;;;;;;;;;;5155606;27;20078;-73
2022/07/30 08:56:17;;;;;;;8.75;3.00;;;;;;;;;;5155495;27;20404;-75
2022/07/30 08:58:43;;;;;;;9.93;2.97;;;;;;;;;;5155763;27;20046;-73
2022/07/30 09:01:09;;;;;;;6.82;2.67;;;;;;;;;;5156357;27;20439;-76
2022/07/30 09:03:37;;;;;;;8.43;2.50;;;;;;;;;;5149605;27;20486;-74
2022/07/30 09:06:04;;;;;;;7.05;2.70;;;;;;;;;;5135453;27;20043;-74
2022/07/30 09:08:30;;;;;;;7.18;2.75;;;26.20;59.30;;;;;;5117009;27;20390;-74
2022/07/30 09:10:57;;;;;;;6.22;2.42;;;26.20;59.80;;;;;;5134943;27;20047;-74
2022/07/30 09:13:31;;;;;;;8.27;2.50;;;26.00;61.70;;;;;;5134724;27;20121;-74
2022/07/30 09:15:57;;;;;;;10.88;3.10;;;25.70;61.60;;;;;;5134796;27;20360;-74
2022/07/30 09:18:38;;;;;;;7.53;2.93;;;25.70;62.30;;;;;;5134726;27;20049;-74
2022/07/30 09:21:16;;;;;;;7.27;2.90;;;25.70;64.20;;;;;;5116437;27;20335;-74
2022/07/30 09:23:57;;;;;;;8.20;2.53;;;25.80;63.80;;;;;;5134775;27;20121;-75
2022/07/30 09:26:23;;;;;;;9.17;2.50;;;25.70;65.30;;;;;;5134915;27;20116;-74
2022/07/30 09:28:48;;;;;;;7.30;2.80;;;25.70;64.90;;;;;;5134550;27;20051;-74
2022/07/30 09:31:16;;;;;;;10.00;2.67;;;25.60;65.30;;;;;;5134858;27;20454;-74
2022/07/30 09:33:45;;;;;;;8.93;2.53;;;25.60;65.60;;;;;;5134238;27;20397;-74
2022/07/30 09:36:16;;;;;;;10.33;2.53;;;25.40;65.00;;;;;;5134678;27;20041;-74
2022/07/30 09:38:42;;;;;;;10.20;2.70;;;25.40;65.60;;;;;;5134341;27;20051;-75
2022/07/30 09:41:09;;;;;;;8.13;2.63;;;25.30;66.30;;;;;;5134172;27;20043;-74
2022/07/30 09:44:03;;;;;;;6.73;2.33;;;25.20;65.70;;;;;;5134317;27;20043;-74
2022/07/30 09:46:46;;;;;;;9.37;2.83;;;25.10;65.70;;;;;;5130708;27;20087;-74
2022/07/30 09:49:19;;;;;;;9.60;2.60;;;25.10;66.70;;;;;;5134279;27;20047;-74
2022/07/30 09:51:45;;;;;;;9.77;2.70;;;24.90;66.30;;;;;;5133800;27;20547;-75
2022/07/30 09:54:10;;;;;;;7.23;2.33;;;24.80;66.20;;;;;;5134062;27;20039;-74
2022/07/30 09:56:36;;;;;;;8.13;2.57;;;24.70;66.50;;;;;;5133632;27;20043;-73
2022/07/30 09:59:02;;;;;;;6.23;2.30;;;24.70;67.00;;;;;;5133633;27;20087;-79
2022/07/30 10:01:48;;;;;;;8.23;2.53;;;24.70;66.70;;;;;;5134212;27;20090;-73
2022/07/30 10:04:29;;;;;;;8.40;2.60;;;24.60;67.40;;;;;;5134364;27;20043;-76
2022/07/30 10:06:56;;;;;;;8.47;3.27;;;24.70;69.00;;;;;;5134171;27;20101;-78
2022/07/30 10:09:35;;;;;;;7.57;2.80;;;24.70;69.40;;;;;;5116099;27;20482;-74
2022/07/30 10:12:04;;;;;;;9.57;2.73;;;24.80;70.00;;;;;;5133575;27;20051;-75
2022/07/30 10:14:33;;;;;;;8.30;2.80;;;24.90;70.30;;;;;;5133482;27;20130;-74
2022/07/30 10:17:01;;;;;;;6.33;2.93;;;25.00;70.40;;;;;;5133438;27;20490;-74
2022/07/30 10:19:27;;;;;;;7.40;2.37;;;25.00;69.70;;;;;;5133986;27;20051;-74
2022/07/30 10:21:56;;;;;;;5.83;2.40;;;25.00;70.10;;;;;;5133820;27;20054;-74
2022/07/30 10:24:24;;;;;;;7.23;2.70;;;25.00;70.80;;;;;;5133909;27;20041;-73
2022/07/30 10:26:51;;;;;;;8.20;3.03;;;25.00;69.10;;;;;;5133316;27;20509;-74
2022/07/30 10:29:18;;;;;;;10.77;2.50;;;25.00;67.50;;;;;;5115509;28;20135;-73
2022/07/30 10:31:45;;;;;;;9.43;3.13;;;25.00;68.50;;;;;;5133867;28;20479;-74
2022/07/30 10:34:16;;;;;;;6.97;3.00;;;25.10;68.70;;;;;;5133534;28;20375;-74
2022/07/30 10:36:55;;;;;;;7.73;2.50;;;25.10;69.10;;;;;;5134045;28;20435;-73
2022/07/30 10:39:28;;;;;;;9.03;3.47;;;25.00;69.50;;;;;;5133888;28;20047;-74
2022/07/30 10:42:27;;;;;;;8.77;3.00;;;25.00;69.40;;;;;;5133672;28;20055;-74
2022/07/30 10:45:21;;;;;;;10.07;3.00;;;24.90;70.00;;;;;;5133637;28;20051;-74
2022/07/30 10:47:53;;;;;;;8.05;2.70;;;24.80;69.80;;;;;;5133866;28;20050;-73
2022/07/30 10:50:25;;;;;;;7.73;2.43;;;24.70;69.30;;;;;;5134124;28;20051;-72
2022/07/30 10:53:02;;;;;;;7.40;2.67;;;24.80;69.60;;;;;;5133477;28;20055;-75
2022/07/30 10:55:32;;;;;;;7.77;2.67;;;24.80;71.00;;;;;;5115417;28;20134;-73
2022/07/30 10:58:11;;;;;;;6.30;2.60;;;24.70;71.20;;;;;;5133470;28;20092;-74
2022/07/30 11:00:52;;;;;;;7.17;2.40;;;24.70;70.90;;;;;;5133903;28;20470;-73
2022/07/30 11:03:23;;;;;;;8.63;3.17;;;24.50;71.10;;;;;;5133286;28;20517;-73
2022/07/30 11:06:10;;;;;;;5.00;2.40;;;24.50;71.80;;;;;;5133768;28;20101;-73
2022/07/30 11:08:40;;;;;;;5.53;2.17;;;24.50;72.00;;;;;;5119463;27;20115;-73
2022/07/30 11:11:21;;;;;;;8.33;2.50;;;24.50;72.80;;;;;;5137392;27;20070;-77
2022/07/30 11:14:01;;;;;;;8.27;2.30;;;24.60;71.90;;;;;;5137036;27;20051;-78
2022/07/30 11:16:33;;;;;;;8.60;2.60;;;24.50;71.00;;;;;;5119019;27;20139;-82
2022/07/30 11:19:04;;;;;;;7.57;2.17;;;24.40;71.30;;;;;;5137018;27;20107;-79
2022/07/30 11:21:31;;;;;;;5.10;2.17;;;24.30;70.80;;;;;;5118826;27;20059;-73
2022/07/30 11:23:57;;;;;;;5.03;2.17;;;24.30;72.30;;;;;;5137045;27;20064;-77
2022/07/30 11:26:38;;;;;;;8.77;2.50;;;24.30;71.90;;;;;;5119005;27;20104;-74
2022/07/30 11:29:05;;;;;;;6.93;2.47;;;24.30;72.30;;;;;;5136970;27;20051;-73
2022/07/30 11:31:36;;;;;;;6.80;2.40;;;24.30;72.40;;;;;;5136940;27;20471;-74
2022/07/30 11:34:24;;;;;;;7.37;2.27;;;24.20;71.80;;;;;;5136700;27;20043;-74
2022/07/30 11:37:03;;;;;;;7.07;2.57;;;24.20;70.70;;;;;;5118508;27;20047;-74
2022/07/30 11:39:54;;;;;;;6.53;2.70;;;24.20;71.80;;;;;;5136570;27;20050;-73
2022/07/30 11:42:22;;;;;;;8.30;2.90;;;24.20;69.80;;;;;;5136166;27;20043;-74
2022/07/30 11:44:48;;;;;;;6.27;2.57;;;24.20;68.60;;;;;;5136480;27;20148;-74
2022/07/30 11:47:14;;;;;;;6.20;2.40;;;24.20;69.60;;;;;;5135976;27;20499;-74
2022/07/30 11:49:40;;;;;;;5.30;2.27;;;24.20;70.40;;;;;;5136260;27;20054;-74
2022/07/30 11:52:07;;;;;;;6.57;2.13;;;24.20;71.10;;;;;;5117769;27;20054;-74
2022/07/30 11:54:49;;;;;;;6.73;2.47;;;24.30;71.50;;;;;;5136046;27;20062;-74
2022/07/30 11:57:15;;;;;;;6.23;2.47;;;24.30;71.80;;;;;;5135833;27;20402;-74
2022/07/30 11:59:56;;;;;;;5.27;1.93;;;24.30;70.80;;;;;;5117981;27;20047;-74
2022/07/30 12:02:26;;;;;;;7.80;2.20;;;24.30;70.70;;;;;;5135782;27;20129;-74
2022/07/30 12:04:52;;;;;;;6.47;2.00;;;24.20;67.70;;;;;;5136122;27;20043;-74
2022/07/30 12:07:22;;;;;;;7.17;2.27;;;24.20;68.30;;;;;;5136028;27;20187;-74
2022/07/30 12:09:48;;;;;;;8.27;2.30;;;24.10;66.20;;;;;;5136366;27;20051;-74
2022/07/30 12:12:23;;;;;;;7.50;1.83;;;24.00;65.50;;;;;;5136006;27;20069;-74
2022/07/30 12:14:50;;;;;;;8.63;2.17;;;24.00;66.70;;;;;;5117710;27;20051;-78
2022/07/30 12:17:16;;;;;;;7.13;2.13;;;23.90;66.70;;;;;;5135535;27;20055;-78
2022/07/30 12:19:46;;;;;;;6.07;2.10;;;24.00;67.60;;;;;;5116978;27;20101;-74
2022/07/30 12:22:12;;;;;;;5.87;1.87;;;24.10;65.00;;;;;;5135464;27;20058;-76
2022/07/30 12:24:37;;;;;;;7.83;2.47;;;24.10;64.20;;;;;;5136010;27;20390;-73
2022/07/30 12:27:07;;;;;;;5.87;1.90;;;24.10;64.00;;;;;;5117184;27;20047;-73
2022/07/30 12:29:35;;;;;;;8.03;2.10;;;24.00;65.30;;;;;;5135772;27;20035;-72
2022/07/30 12:32:02;;;;;;;4.57;2.13;;;24.00;66.40;;;;;;5136019;27;20035;-71
2022/07/30 12:34:28;;;;;;;8.23;2.20;;;24.00;65.40;;;;;;5117703;27;20047;-72
2022/07/30 12:36:54;;;;;;;5.80;2.10;;;23.90;65.60;;;;;;5135957;27;20482;-72
2022/07/30 12:39:26;;;;;;;5.47;1.77;;;23.90;65.50;;;;;;5135292;27;20047;-72
2022/07/30 12:41:54;;;;;;;5.47;1.80;;;23.90;66.20;;;;;;5135468;27;20047;-72
2022/07/30 12:44:34;;;;;;;5.10;1.67;;;23.80;66.20;;;;;;5135039;27;20118;-72
2022/07/30 12:47:01;;;;;;;6.13;2.07;;;23.80;68.20;;;;;;5135402;27;20047;-72
2022/07/30 12:49:31;;;;;;;5.87;2.00;;;23.80;66.40;;;;;;5135232;27;20043;-72
2022/07/30 12:51:57;;;;;;;5.60;1.60;;;23.80;65.80;;;;;;5135158;27;20425;-72
2022/07/30 12:54:23;;;;;;;4.30;1.73;;;23.70;64.60;;;;;;5135233;27;20043;-72
2022/07/30 12:57:03;;;;;;;4.87;2.03;;;23.70;64.80;;;;;;5135364;27;20100;-71
2022/07/30 12:59:30;;;;;;;5.20;2.00;;;23.70;65.20;;;;;;5134972;27;20099;-72
2022/07/30 13:01:56;;;;;;;5.00;2.23;;;23.70;65.60;;;;;;5135478;27;20066;-72
2022/07/30 13:04:22;;;;;;;4.87;1.80;;;23.70;65.50;;;;;;5116925;27;20043;-72
2022/07/30 13:07:07;;;;;;;7.23;2.30;;;23.70;65.80;;;;;;5135505;27;20047;-77
2022/07/30 13:09:33;;;;;;;3.80;1.55;;;23.80;65.40;;;;;;5135349;27;20043;-75